Back to Top

Language: 

My Weather Underground Personal Weather Station Historical Data with Graphs...

Delerius Weather Station Historical Data
Daily Summary for January 6, 2017 Units:  English    Metric   Both
« Previous Day
Next Day »
Daily Weekly Monthly Yearly Custom
  High: Low: Average:
Temperature: 44.3 °F 34.0 °F 39.9 °F
Dew Point: 43.5 °F 29.1 °F 36.6 °F
Humidity: 97 % 80 % 88 %
Wind Speed: 12.0 mph 0.0 mph 4.4 mph
Wind Gust: 15.0 mph - -
Wind:- - SSW
Pressure: 30.56 in 30.38 in -
Precipitation: 0.03 in    
Historical Graphs
 
 
Tabular Data for January 6, 2017
Time Temperature Dew Point Pressure Wind Wind Speed Wind Gust Humidity Rainfall Rate (Hourly) solar Conditions
00:00 34.0 °F 30.8 °F 30.56 in South 1.0 mph 8.0 mph 88 % 0.00 in 0 W/m2
00:05 34.1 °F 30.6 °F 30.56 in South 1.0 mph 8.0 mph 87 % 0.00 in 0 W/m2
00:15 34.3 °F 30.5 °F 30.56 in South 2.0 mph 4.0 mph 86 % 0.00 in 0 W/m2
00:20 34.4 °F 30.4 °F 30.56 in SSW 3.0 mph 5.0 mph 85 % 0.00 in 0 W/m2
00:25 34.5 °F 30.2 °F 30.56 in SSW 3.0 mph 5.0 mph 84 % 0.00 in 0 W/m2
00:30 34.6 °F 30.0 °F 30.55 in SSW 3.0 mph 3.0 mph 83 % 0.00 in 0 W/m2
00:35 34.7 °F 30.1 °F 30.55 in SSW 3.0 mph 7.0 mph 83 % 0.00 in 0 W/m2
00:40 34.8 °F 30.2 °F 30.55 in SW 4.0 mph 4.0 mph 83 % 0.00 in 0 W/m2
00:50 34.7 °F 29.8 °F 30.55 in SSW 3.0 mph 3.0 mph 82 % 0.00 in 0 W/m2
00:55 34.7 °F 29.8 °F 30.55 in SSW 3.0 mph 3.0 mph 82 % 0.00 in 0 W/m2
01:00 34.7 °F 29.8 °F 30.55 in SSW 3.0 mph 6.0 mph 82 % 0.00 in 0 W/m2
01:05 34.7 °F 29.8 °F 30.55 in SW 5.0 mph 8.0 mph 82 % 0.00 in 0 W/m2
01:10 34.9 °F 30.0 °F 30.55 in SW 6.0 mph 6.0 mph 82 % 0.00 in 0 W/m2
01:15 35.0 °F 29.8 °F 30.55 in SSW 6.0 mph 8.0 mph 81 % 0.00 in 0 W/m2
01:20 35.0 °F 29.8 °F 30.55 in South 5.0 mph 8.0 mph 81 % 0.00 in 0 W/m2
01:30 35.0 °F 29.8 °F 30.55 in SSW 4.0 mph 8.0 mph 81 % 0.00 in 0 W/m2
01:35 34.9 °F 29.7 °F 30.55 in SW 3.0 mph 8.0 mph 81 % 0.00 in 0 W/m2
01:40 34.7 °F 29.5 °F 30.54 in SW 3.0 mph 3.0 mph 81 % 0.00 in 0 W/m2
01:45 34.6 °F 29.4 °F 30.54 in SW 3.0 mph 5.0 mph 81 % 0.00 in 0 W/m2
01:50 34.7 °F 29.5 °F 30.54 in SW 5.0 mph 8.0 mph 81 % 0.00 in 0 W/m2
01:55 34.7 °F 29.5 °F 30.54 in SW 5.0 mph 8.0 mph 81 % 0.00 in 0 W/m2
02:00 34.7 °F 29.5 °F 30.54 in South 4.0 mph 8.0 mph 81 % 0.00 in 0 W/m2
02:10 34.7 °F 29.5 °F 30.54 in South 4.0 mph 8.0 mph 81 % 0.00 in 0 W/m2
02:15 34.6 °F 29.1 °F 30.54 in SSW 3.0 mph 8.0 mph 80 % 0.00 in 0 W/m2
02:20 34.7 °F 29.5 °F 30.54 in SW 3.0 mph 3.0 mph 81 % 0.00 in 0 W/m2
02:25 34.7 °F 29.2 °F 30.53 in SW 4.0 mph 4.0 mph 80 % 0.00 in 0 W/m2
02:30 34.7 °F 29.2 °F 30.53 in SW 4.0 mph 8.0 mph 80 % 0.00 in 0 W/m2
02:35 34.7 °F 29.2 °F 30.53 in SSW 4.0 mph 8.0 mph 80 % 0.00 in 0 W/m2
02:45 34.8 °F 29.6 °F 30.53 in SSW 4.0 mph 5.0 mph 81 % 0.00 in 0 W/m2
02:50 34.8 °F 29.6 °F 30.53 in SSW 5.0 mph 8.0 mph 81 % 0.00 in 0 W/m2
02:55 34.8 °F 29.6 °F 30.53 in SSW 5.0 mph 8.0 mph 81 % 0.00 in 0 W/m2
03:00 34.7 °F 29.5 °F 30.53 in SW 5.0 mph 8.0 mph 81 % 0.00 in 0 W/m2
03:05 34.8 °F 29.6 °F 30.53 in SSW 6.0 mph 8.0 mph 81 % 0.00 in 0 W/m2
03:10 34.8 °F 29.6 °F 30.53 in South 5.0 mph 5.0 mph 81 % 0.00 in 0 W/m2
03:20 34.9 °F 30.0 °F 30.53 in SSW 4.0 mph 8.0 mph 82 % 0.00 in 0 W/m2
03:25 35.0 °F 30.1 °F 30.53 in WSW 3.0 mph 8.0 mph 82 % 0.00 in 0 W/m2
03:30 35.1 °F 30.2 °F 30.53 in SW 4.0 mph 4.0 mph 82 % 0.00 in 0 W/m2
03:35 35.2 °F 30.3 °F 30.53 in SSW 5.0 mph 5.0 mph 82 % 0.00 in 0 W/m2
03:40 35.4 °F 30.5 °F 30.53 in SSW 5.0 mph 5.0 mph 82 % 0.00 in 0 W/m2
03:45 35.4 °F 30.5 °F 30.53 in SW 5.0 mph 8.0 mph 82 % 0.00 in 0 W/m2
03:55 35.6 °F 30.6 °F 30.52 in SW 5.0 mph 6.0 mph 82 % 0.00 in 0 W/m2
04:00 35.8 °F 30.8 °F 30.52 in SW 6.0 mph 8.0 mph 82 % 0.00 in 0 W/m2
04:05 36.0 °F 31.0 °F 30.52 in SSW 7.0 mph 8.0 mph 82 % 0.00 in 0 W/m2
04:10 36.1 °F 31.1 °F 30.52 in SW 6.0 mph 10.0 mph 82 % 0.00 in 0 W/m2
04:15 36.3 °F 31.0 °F 30.52 in SW 6.0 mph 10.0 mph 81 % 0.00 in 0 W/m2
04:20 36.4 °F 31.1 °F 30.52 in SW 4.0 mph 4.0 mph 81 % 0.00 in 0 W/m2
04:30 36.3 °F 31.3 °F 30.51 in West 2.0 mph 8.0 mph 82 % 0.00 in 0 W/m2
04:35 36.3 °F 31.3 °F 30.51 in WSW 4.0 mph 8.0 mph 82 % 0.00 in 0 W/m2
04:40 36.4 °F 31.4 °F 30.51 in SW 4.0 mph 8.0 mph 82 % 0.00 in 0 W/m2
04:50 36.7 °F 31.7 °F 30.51 in SW 6.0 mph 8.0 mph 82 % 0.00 in 0 W/m2
04:55 36.9 °F 31.9 °F 30.50 in SSW 7.0 mph 8.0 mph 82 % 0.00 in 0 W/m2
05:00 37.0 °F 32.0 °F 30.50 in SW 6.0 mph 8.0 mph 82 % 0.00 in 0 W/m2
05:10 37.5 °F 32.5 °F 30.50 in SW 8.0 mph 8.0 mph 82 % 0.00 in 0 W/m2
05:15 37.6 °F 32.6 °F 30.50 in SW 8.0 mph 8.0 mph 82 % 0.00 in 0 W/m2
05:20 37.7 °F 32.7 °F 30.50 in SSW 7.0 mph 11.0 mph 82 % 0.00 in 0 W/m2
05:25 37.9 °F 32.9 °F 30.50 in SSW 7.0 mph 13.0 mph 82 % 0.00 in 0 W/m2
05:30 38.1 °F 33.1 °F 30.50 in SSW 8.0 mph 10.0 mph 82 % 0.00 in 0 W/m2
05:35 38.4 °F 33.4 °F 30.50 in SW 7.0 mph 10.0 mph 82 % 0.00 in 0 W/m2
05:45 38.4 °F 33.4 °F 30.50 in WSW 3.0 mph 8.0 mph 82 % 0.00 in 0 W/m2
05:50 38.5 °F 33.5 °F 30.49 in WSW 3.0 mph 8.0 mph 82 % 0.00 in 0 W/m2
05:55 38.6 °F 33.6 °F 30.49 in SW 4.0 mph 8.0 mph 82 % 0.00 in 0 W/m2
06:00 38.7 °F 33.7 °F 30.49 in SW 6.0 mph 6.0 mph 82 % 0.00 in 0 W/m2
06:05 38.8 °F 33.8 °F 30.50 in WSW 7.0 mph 7.0 mph 82 % 0.00 in 0 W/m2
06:10 38.9 °F 33.9 °F 30.50 in SW 6.0 mph 6.0 mph 82 % 0.00 in 0 W/m2
06:15 39.0 °F 34.0 °F 30.50 in WSW 5.0 mph 8.0 mph 82 % 0.00 in 0 W/m2
06:20 39.0 °F 34.0 °F 30.50 in WSW 4.0 mph 8.0 mph 82 % 0.00 in 0 W/m2
06:30 39.1 °F 34.1 °F 30.50 in SSW 5.0 mph 8.0 mph 82 % 0.00 in 0 W/m2
06:35 39.0 °F 34.0 °F 30.50 in WSW 5.0 mph 8.0 mph 82 % 0.00 in 0 W/m2
06:40 39.0 °F 34.3 °F 30.50 in SSW 5.0 mph 5.0 mph 83 % 0.00 in 0 W/m2
06:45 39.0 °F 34.3 °F 30.50 in SW 5.0 mph 6.0 mph 83 % 0.00 in 0 W/m2
06:50 39.1 °F 34.4 °F 30.51 in SSW 5.0 mph 8.0 mph 83 % 0.00 in 0 W/m2
06:55 39.2 °F 34.5 °F 30.50 in SW 6.0 mph 8.0 mph 83 % 0.00 in 0 W/m2
07:05 39.4 °F 34.7 °F 30.50 in SW 6.0 mph 8.0 mph 83 % 0.00 in 0 W/m2
07:15 39.5 °F 34.8 °F 30.50 in SW 5.0 mph 8.0 mph 83 % 0.00 in 0 W/m2
07:20 39.6 °F 34.9 °F 30.50 in SW 5.0 mph 10.0 mph 83 % 0.00 in 0 W/m2
07:25 39.8 °F 35.1 °F 30.50 in SSW 6.0 mph 10.0 mph 83 % 0.00 in 0 W/m2
07:30 39.9 °F 34.9 °F 30.50 in SSW 8.0 mph 10.0 mph 82 % 0.00 in 0 W/m2
07:35 39.9 °F 34.9 °F 30.50 in SW 8.0 mph 10.0 mph 82 % 0.00 in 0 W/m2
07:40 39.9 °F 34.9 °F 30.50 in South 8.0 mph 14.0 mph 82 % 0.00 in 0 W/m2
07:50 40.0 °F 34.6 °F 30.50 in SW 11.0 mph 12.0 mph 81 % 0.00 in 0 W/m2
07:55 40.1 °F 34.7 °F 30.49 in SSE 10.0 mph 12.0 mph 81 % 0.00 in 0 W/m2
08:00 40.0 °F 34.6 °F 30.49 in SSW 10.0 mph 14.0 mph 81 % 0.00 in 0 W/m2
08:05 40.0 °F 34.6 °F 30.49 in SSW 9.0 mph 14.0 mph 81 % 0.00 in 0 W/m2
08:10 40.0 °F 34.6 °F 30.49 in SSW 7.0 mph 9.0 mph 81 % 0.00 in 0 W/m2
08:15 40.1 °F 34.7 °F 30.49 in SSW 6.0 mph 9.0 mph 81 % 0.00 in 0 W/m2
08:25 40.2 °F 34.8 °F 30.49 in South 4.0 mph 8.0 mph 81 % 0.00 in 0 W/m2
08:35 40.3 °F 34.6 °F 30.50 in SSW 6.0 mph 8.0 mph 80 % 0.00 in 5 W/m2
08:40 40.4 °F 35.0 °F 30.49 in South 6.0 mph 6.0 mph 81 % 0.00 in 5 W/m2
08:45 40.3 °F 34.9 °F 30.49 in South 5.0 mph 7.0 mph 81 % 0.00 in 7 W/m2
08:50 40.2 °F 35.1 °F 30.49 in SSW 5.0 mph 12.0 mph 82 % 0.00 in 9 W/m2
09:00 40.1 °F 35.4 °F 30.49 in SSE 7.0 mph 8.0 mph 83 % 0.00 in 12 W/m2
09:05 40.0 °F 35.3 °F 30.49 in SSW 7.0 mph 8.0 mph 83 % 0.00 in 11 W/m2
09:10 40.0 °F 35.6 °F 30.49 in South 6.0 mph 6.0 mph 84 % 0.00 in 12 W/m2
09:15 40.0 °F 35.6 °F 30.49 in SSW 5.0 mph 8.0 mph 84 % 0.00 in 12 W/m2
09:20 40.0 °F 35.6 °F 30.49 in SSW 4.0 mph 8.0 mph 84 % 0.00 in 12 W/m2
09:25 40.0 °F 35.6 °F 30.49 in SSW 5.0 mph 8.0 mph 84 % 0.00 in 14 W/m2
09:35 40.0 °F 35.6 °F 30.49 in South 6.0 mph 10.0 mph 84 % 0.00 in 14 W/m2
09:40 40.1 °F 35.7 °F 30.49 in SSW 5.0 mph 8.0 mph 84 % 0.00 in 16 W/m2
09:45 40.2 °F 35.8 °F 30.49 in SSW 6.0 mph 8.0 mph 84 % 0.00 in 18 W/m2
09:50 40.2 °F 35.8 °F 30.49 in SSW 7.0 mph 7.0 mph 84 % 0.00 in 18 W/m2
09:55 40.4 °F 35.9 °F 30.49 in SW 7.0 mph 8.0 mph 84 % 0.00 in 21 W/m2
10:00 40.6 °F 35.8 °F 30.49 in SSW 8.0 mph 8.0 mph 83 % 0.00 in 19 W/m2
10:05 40.6 °F 35.8 °F 30.49 in SSW 8.0 mph 8.0 mph 83 % 0.00 in 21 W/m2
10:10 40.6 °F 35.8 °F 30.49 in SW 8.0 mph 9.0 mph 83 % 0.00 in 19 W/m2
10:15 40.6 °F 35.8 °F 30.49 in SSW 8.0 mph 9.0 mph 83 % 0.00 in 18 W/m2
10:25 40.7 °F 35.6 °F 30.49 in SSW 12.0 mph 13.0 mph 82 % 0.00 in 19 W/m2
10:30 40.5 °F 35.7 °F 30.49 in SSW 12.0 mph 13.0 mph 83 % 0.00 in 21 W/m2
10:35 40.3 °F 35.5 °F 30.48 in SW 12.0 mph 13.0 mph 83 % 0.00 in 25 W/m2
10:40 40.4 °F 35.6 °F 30.48 in SSW 12.0 mph 12.0 mph 83 % 0.00 in 28 W/m2
10:45 40.4 °F 35.6 °F 30.48 in SW 11.0 mph 13.0 mph 83 % 0.00 in 33 W/m2
10:50 40.4 °F 35.6 °F 30.48 in SW 10.0 mph 10.0 mph 83 % 0.00 in 32 W/m2
11:00 40.3 °F 35.8 °F 30.48 in SSW 8.0 mph 8.0 mph 84 % 0.00 in 23 W/m2
11:05 40.3 °F 35.8 °F 30.47 in SW 8.0 mph 8.0 mph 84 % 0.00 in 21 W/m2
11:10 40.3 °F 36.1 °F 30.47 in SSE 9.0 mph 9.0 mph 85 % 0.00 in 21 W/m2
11:15 40.3 °F 36.1 °F 30.47 in SSW 9.0 mph 9.0 mph 85 % 0.00 in 19 W/m2
11:20 40.2 °F 36.1 °F 30.47 in SSW 8.0 mph 9.0 mph 85 % 0.00 in 21 W/m2
11:25 40.3 °F 36.4 °F 30.47 in South 8.0 mph 9.0 mph 86 % 0.00 in 25 W/m2
11:35 40.6 °F 37.0 °F 30.46 in SSW 8.0 mph 10.0 mph 87 % 0.00 in 30 W/m2
11:45 40.8 °F 37.5 °F 30.46 in SSW 9.0 mph 11.0 mph 88 % 0.00 in 32 W/m2
11:50 40.9 °F 37.6 °F 30.46 in SSW 8.0 mph 8.0 mph 88 % 0.00 in 40 W/m2
11:55 41.0 °F 38.0 °F 30.46 in SW 8.0 mph 8.0 mph 89 % 0.00 in 49 W/m2
12:00 41.1 °F 38.1 °F 30.45 in SW 8.0 mph 8.0 mph 89 % 0.00 in 49 W/m2
12:05 41.2 °F 38.2 °F 30.45 in South 7.0 mph 10.0 mph 89 % 0.00 in 47 W/m2
12:10 41.2 °F 38.2 °F 30.45 in SSW 8.0 mph 8.0 mph 89 % 0.00 in 51 W/m2
12:20 40.8 °F 37.8 °F 30.45 in SSW 7.0 mph 9.0 mph 89 % 0.00 in 46 W/m2
12:25 40.6 °F 37.6 °F 30.45 in SSW 6.0 mph 9.0 mph 89 % 0.00 in 47 W/m2
12:30 40.3 °F 37.6 °F 30.45 in South 7.0 mph 7.0 mph 90 % 0.00 in 46 W/m2
12:35 40.2 °F 37.8 °F 30.45 in South 7.0 mph 8.0 mph 91 % 0.00 in 40 W/m2
12:40 40.2 °F 37.8 °F 30.45 in South 6.0 mph 6.0 mph 91 % 0.00 in 35 W/m2
12:45 40.2 °F 38.1 °F 30.44 in South 6.0 mph 8.0 mph 92 % 0.00 in 37 W/m2
12:50 40.2 °F 38.1 °F 30.44 in North 7.0 mph 8.0 mph 92 % 0.00 in 37 W/m2
13:00 40.3 °F 38.2 °F 30.43 in SSW 7.0 mph 13.0 mph 92 % 0.00 in 44 W/m2
13:05 40.3 °F 38.4 °F 30.43 in South 7.0 mph 13.0 mph 93 % 0.00 in 42 W/m2
13:10 40.4 °F 38.5 °F 30.43 in SSW 5.0 mph 5.0 mph 93 % 0.00 in 35 W/m2
13:15 40.5 °F 38.6 °F 30.43 in South 5.0 mph 8.0 mph 93 % 0.00 in 32 W/m2
13:20 40.6 °F 38.7 °F 30.43 in SSW 5.0 mph 8.0 mph 93 % 0.00 in 26 W/m2
13:25 40.7 °F 38.8 °F 30.42 in SSW 6.0 mph 8.0 mph 93 % 0.00 in 30 W/m2
13:35 41.0 °F 39.1 °F 30.42 in South 8.0 mph 11.0 mph 93 % 0.00 in 30 W/m2
13:40 41.0 °F 38.9 °F 30.42 in SSW 7.0 mph 12.0 mph 92 % 0.00 in 28 W/m2
13:45 41.1 °F 39.2 °F 30.42 in SSW 7.0 mph 12.0 mph 93 % 0.00 in 26 W/m2
13:50 41.1 °F 39.0 °F 30.42 in SW 7.0 mph 7.0 mph 92 % 0.00 in 30 W/m2
13:55 41.1 °F 39.2 °F 30.42 in SSW 7.0 mph 9.0 mph 93 % 0.00 in 28 W/m2
14:00 41.2 °F 39.3 °F 30.42 in SSW 7.0 mph 7.0 mph 93 % 0.04 in 28 W/m2
14:10 41.3 °F 39.4 °F 30.42 in South 6.0 mph 6.0 mph 93 % 0.04 in 23 W/m2
14:15 41.3 °F 39.4 °F 30.42 in SSW 5.0 mph 8.0 mph 93 % 0.00 in 21 W/m2
14:20 41.4 °F 39.5 °F 30.42 in SSW 5.0 mph 8.0 mph 93 % 0.00 in 19 W/m2
14:25 41.5 °F 39.6 °F 30.42 in SSW 8.0 mph 13.0 mph 93 % 0.00 in 18 W/m2
14:30 41.6 °F 39.4 °F 30.42 in SSW 9.0 mph 15.0 mph 92 % 0.00 in 19 W/m2
14:40 41.6 °F 39.4 °F 30.42 in SSW 7.0 mph 8.0 mph 92 % 0.00 in 19 W/m2
14:45 41.5 °F 39.3 °F 30.42 in SSW 5.0 mph 8.0 mph 92 % 0.00 in 16 W/m2
14:50 41.5 °F 39.3 °F 30.42 in SSW 4.0 mph 8.0 mph 92 % 0.00 in 12 W/m2
14:55 41.5 °F 39.3 °F 30.41 in SSW 4.0 mph 8.0 mph 92 % 0.00 in 12 W/m2
15:00 41.5 °F 39.6 °F 30.41 in South 5.0 mph 8.0 mph 93 % 0.00 in 19 W/m2
15:10 41.7 °F 39.8 °F 30.41 in SSW 4.0 mph 8.0 mph 93 % 0.00 in 11 W/m2
15:15 41.7 °F 39.8 °F 30.41 in SSW 3.0 mph 8.0 mph 93 % 0.00 in 12 W/m2
15:20 41.8 °F 39.9 °F 30.41 in South 4.0 mph 4.0 mph 93 % 0.00 in 16 W/m2
15:25 41.9 °F 40.0 °F 30.40 in SW 6.0 mph 7.0 mph 93 % 0.00 in 14 W/m2
15:30 42.0 °F 40.1 °F 30.40 in SSW 7.0 mph 8.0 mph 93 % 0.00 in 14 W/m2
15:35 42.1 °F 40.2 °F 30.41 in SSW 6.0 mph 8.0 mph 93 % 0.00 in 16 W/m2
15:45 42.3 °F 40.4 °F 30.41 in SW 5.0 mph 8.0 mph 93 % 0.00 in 9 W/m2
15:50 42.4 °F 40.5 °F 30.41 in South 6.0 mph 9.0 mph 93 % 0.00 in 7 W/m2
15:55 42.5 °F 40.6 °F 30.41 in South 7.0 mph 9.0 mph 93 % 0.00 in 0 W/m2
16:00 42.6 °F 40.7 °F 30.41 in South 6.0 mph 8.0 mph 93 % 0.00 in 0 W/m2
16:05 42.6 °F 40.4 °F 30.40 in South 6.0 mph 8.0 mph 92 % 0.00 in 0 W/m2
16:10 42.6 °F 40.4 °F 30.41 in SSW 5.0 mph 5.0 mph 92 % 0.00 in 0 W/m2
16:20 42.7 °F 40.5 °F 30.41 in South 5.0 mph 5.0 mph 92 % 0.00 in 0 W/m2
16:25 42.7 °F 40.5 °F 30.41 in SSW 4.0 mph 8.0 mph 92 % 0.00 in 0 W/m2
16:30 42.8 °F 40.6 °F 30.41 in SSW 4.0 mph 8.0 mph 92 % 0.00 in 0 W/m2
16:35 42.8 °F 40.6 °F 30.40 in South 4.0 mph 8.0 mph 92 % 0.00 in 0 W/m2
16:40 42.8 °F 40.6 °F 30.41 in SSW 5.0 mph 5.0 mph 92 % 0.00 in 0 W/m2
16:45 42.9 °F 40.7 °F 30.41 in SW 3.0 mph 6.0 mph 92 % 0.00 in 0 W/m2
16:50 42.9 °F 40.7 °F 30.41 in South 3.0 mph 3.0 mph 92 % 0.00 in 0 W/m2
16:55 42.9 °F 40.7 °F 30.40 in South 2.0 mph 8.0 mph 92 % 0.00 in 0 W/m2
17:05 42.9 °F 41.0 °F 30.40 in SSW 1.0 mph 8.0 mph 93 % 0.00 in 0 W/m2
17:10 43.0 °F 41.1 °F 30.40 in SW 3.0 mph 8.0 mph 93 % 0.00 in 0 W/m2
17:15 42.9 °F 41.0 °F 30.39 in SW 4.0 mph 8.0 mph 93 % 0.00 in 0 W/m2
17:20 42.9 °F 41.0 °F 30.39 in SW 3.0 mph 3.0 mph 93 % 0.00 in 0 W/m2
17:30 42.8 °F 40.9 °F 30.40 in SW 1.0 mph 1.0 mph 93 % 0.00 in 0 W/m2
17:35 42.8 °F 40.9 °F 30.40 in SW 1.0 mph 8.0 mph 93 % 0.00 in 0 W/m2
17:40 42.8 °F 40.9 °F 30.40 in Calm   8.0 mph 93 % 0.00 in 0 W/m2
17:45 42.8 °F 41.2 °F 30.40 in SW 1.0 mph 8.0 mph 94 % 0.00 in 0 W/m2
17:50 42.9 °F 41.3 °F 30.40 in SW 1.0 mph 1.0 mph 94 % 0.00 in 0 W/m2
17:55 42.8 °F 41.2 °F 30.40 in Calm   8.0 mph 94 % 0.00 in 0 W/m2
18:05 42.8 °F 41.2 °F 30.40 in SW 1.0 mph 8.0 mph 94 % 0.00 in 0 W/m2
18:10 42.8 °F 41.2 °F 30.40 in SW 2.0 mph 2.0 mph 94 % 0.00 in 0 W/m2
18:15 42.7 °F 41.1 °F 30.40 in SW 2.0 mph 8.0 mph 94 % 0.00 in 0 W/m2
18:20 42.7 °F 40.8 °F 30.39 in SW 2.0 mph 8.0 mph 93 % 0.00 in 0 W/m2
18:25 42.6 °F 40.7 °F 30.39 in SW 2.0 mph 8.0 mph 93 % 0.00 in 0 W/m2
18:35 42.5 °F 40.9 °F 30.38 in West 5.0 mph 8.0 mph 94 % 0.00 in 0 W/m2
18:40 42.3 °F 40.7 °F 30.38 in WNW 5.0 mph 8.0 mph 94 % 0.00 in 0 W/m2
18:45 42.4 °F 40.8 °F 30.38 in NNW 4.0 mph 8.0 mph 94 % 0.00 in 0 W/m2
18:50 42.5 °F 41.2 °F 30.38 in NNW 3.0 mph 3.0 mph 95 % 0.00 in 0 W/m2
18:55 42.6 °F 41.3 °F 30.38 in NNW 1.0 mph 8.0 mph 95 % 0.00 in 0 W/m2
19:00 42.5 °F 40.9 °F 30.38 in Calm   8.0 mph 94 % 0.00 in 0 W/m2
19:10 42.2 °F 40.6 °F 30.38 in Calm   8.0 mph 94 % 0.00 in 0 W/m2
19:15 42.1 °F 40.8 °F 30.38 in Calm   8.0 mph 95 % 0.00 in 0 W/m2
19:20 42.1 °F 40.8 °F 30.38 in Calm   8.0 mph 95 % 0.00 in 0 W/m2
19:25 42.0 °F 40.7 °F 30.38 in Calm   8.0 mph 95 % 0.00 in 0 W/m2
19:30 41.8 °F 40.2 °F 30.39 in Calm   8.0 mph 94 % 0.00 in 0 W/m2
19:40 41.5 °F 40.2 °F 30.39 in NNW 1.0 mph 1.0 mph 95 % 0.00 in 0 W/m2
19:45 41.4 °F 40.1 °F 30.39 in Calm   8.0 mph 95 % 0.00 in 0 W/m2
19:50 41.3 °F 40.0 °F 30.39 in Calm   8.0 mph 95 % 0.00 in 0 W/m2
19:55 41.2 °F 39.9 °F 30.38 in Calm   8.0 mph 95 % 0.00 in 0 W/m2
20:00 41.1 °F 39.8 °F 30.38 in NNW 1.0 mph 1.0 mph 95 % 0.00 in 0 W/m2
20:10 41.1 °F 39.8 °F 30.39 in Calm   8.0 mph 95 % 0.00 in 0 W/m2
20:15 41.3 °F 40.2 °F 30.39 in Calm   8.0 mph 96 % 0.00 in 0 W/m2
20:20 41.3 °F 40.2 °F 30.40 in ESE 1.0 mph 8.0 mph 96 % 0.00 in 0 W/m2
20:30 41.4 °F 40.3 °F 30.39 in East 1.0 mph 1.0 mph 96 % 0.00 in 0 W/m2
20:35 41.5 °F 40.4 °F 30.39 in Calm   8.0 mph 96 % 0.00 in 0 W/m2
20:40 41.7 °F 40.6 °F 30.39 in Calm   8.0 mph 96 % 0.00 in 0 W/m2
20:50 42.2 °F 41.1 °F 30.39 in East 1.0 mph 8.0 mph 96 % 0.00 in 0 W/m2
20:55 42.3 °F 41.2 °F 30.39 in East 1.0 mph 8.0 mph 96 % 0.00 in 0 W/m2
21:00 42.4 °F 41.3 °F 30.39 in Calm   8.0 mph 96 % 0.00 in 0 W/m2
21:05 42.5 °F 41.4 °F 30.39 in Calm   8.0 mph 96 % 0.00 in 0 W/m2
21:10 42.7 °F 41.6 °F 30.39 in Calm   8.0 mph 96 % 0.00 in 0 W/m2
21:20 43.0 °F 41.9 °F 30.40 in Calm   8.0 mph 96 % 0.00 in 0 W/m2
21:25 42.9 °F 41.8 °F 30.40 in Calm   8.0 mph 96 % 0.00 in 0 W/m2
21:30 42.6 °F 41.5 °F 30.40 in Calm   8.0 mph 96 % 0.00 in 0 W/m2
21:35 42.4 °F 41.3 °F 30.40 in Calm   8.0 mph 96 % 0.00 in 0 W/m2
21:40 42.2 °F 40.9 °F 30.40 in Calm   8.0 mph 95 % 0.00 in 0 W/m2
21:45 42.1 °F 41.0 °F 30.40 in Calm   8.0 mph 96 % 0.00 in 0 W/m2
21:50 42.2 °F 41.1 °F 30.40 in Calm   8.0 mph 96 % 0.00 in 0 W/m2
22:00 42.2 °F 41.1 °F 30.40 in East 1.0 mph 1.0 mph 96 % 0.00 in 0 W/m2
22:05 42.0 °F 40.9 °F 30.40 in Calm   8.0 mph 96 % 0.00 in 0 W/m2
22:10 42.1 °F 41.0 °F 30.41 in Calm   8.0 mph 96 % 0.00 in 0 W/m2
22:15 42.1 °F 41.0 °F 30.41 in Calm   8.0 mph 96 % 0.00 in 0 W/m2
22:20 42.1 °F 41.0 °F 30.41 in Calm   8.0 mph 96 % 0.00 in 0 W/m2
22:25 42.0 °F 40.9 °F 30.41 in Calm   8.0 mph 96 % 0.00 in 0 W/m2
22:35 42.1 °F 41.0 °F 30.41 in Calm   8.0 mph 96 % 0.00 in 0 W/m2
22:40 42.2 °F 41.1 °F 30.41 in Calm   8.0 mph 96 % 0.00 in 0 W/m2
22:45 42.1 °F 41.0 °F 30.41 in Calm   8.0 mph 96 % 0.00 in 0 W/m2
22:50 42.2 °F 41.1 °F 30.41 in Calm   8.0 mph 96 % 0.00 in 0 W/m2
23:00 42.4 °F 41.6 °F 30.41 in Calm   8.0 mph 97 % 0.00 in 0 W/m2
23:05 42.5 °F 41.7 °F 30.41 in Calm   8.0 mph 97 % 0.00 in 0 W/m2
23:10 42.6 °F 41.8 °F 30.41 in Calm   8.0 mph 97 % 0.00 in 0 W/m2
23:15 42.7 °F 41.9 °F 30.41 in Calm   8.0 mph 97 % 0.00 in 0 W/m2
23:20 42.8 °F 42.0 °F 30.41 in Calm   8.0 mph 97 % 0.00 in 0 W/m2
23:25 42.9 °F 42.1 °F 30.41 in Calm   8.0 mph 97 % 0.00 in 0 W/m2
23:35 43.3 °F 42.5 °F 30.41 in Calm   8.0 mph 97 % 0.00 in 0 W/m2
23:45 44.1 °F 43.3 °F 30.40 in WNW 3.0 mph 8.0 mph 97 % 0.00 in 0 W/m2
23:50 44.3 °F 43.5 °F 30.40 in WNW 1.0 mph 1.0 mph 97 % 0.00 in 0 W/m2
23:55 44.3 °F 43.5 °F 30.40 in Calm   8.0 mph 97 % 0.00 in 0 W/m2
Delerius-Weather
Compliments of Weather Underground - 2 mb

Data updates at regular intervals.